Time;durP1;ratioP1;P1;durP2;ratioP2;P2;SDS_P1;SDS_P2;PMS_P1;PMS_P2;Temp;Humidity;BMP_temperature;BMP_pressure;BME280_temperature;BME280_humidity;BME280_pressure;Samples;Min_cycle;Max_cycle;Signal;HPM_P1;HPM_P2
2021/10/08 02:23:27;;;;;;;25.47;23.77;;;8.90;99.90;;;;;;4943281;28;20836;-79
2021/10/08 02:25:54;;;;;;;24.40;22.90;;;8.90;99.90;;;;;;4940516;28;20480;-77
2021/10/08 02:28:21;;;;;;;24.80;23.03;;;9.00;99.90;;;;;;4934843;29;20512;-79
2021/10/08 02:30:47;;;;;;;26.00;24.10;;;9.00;99.90;;;;;;4943949;28;20822;-76
2021/10/08 02:33:14;;;;;;;24.37;22.63;;;9.00;99.90;;;;;;4933884;29;20461;-77
2021/10/08 02:35:41;;;;;;;24.50;22.70;;;9.00;99.90;;;;;;4934055;29;20472;-77
2021/10/08 02:38:08;;;;;;;26.40;24.10;;;9.00;99.90;;;;;;4934011;29;20457;-77
2021/10/08 02:40:36;;;;;;;26.33;24.20;;;9.10;99.90;;;;;;4934344;29;20546;-77
2021/10/08 02:43:03;;;;;;;25.87;24.17;;;9.10;99.90;;;;;;4933841;29;20453;-75
2021/10/08 02:45:29;;;;;;;26.23;24.47;;;9.10;99.90;;;;;;4933627;29;20457;-76
2021/10/08 02:47:56;;;;;;;27.23;25.30;;;9.10;99.90;;;;;;4933766;29;21007;-76
2021/10/08 02:50:26;;;;;;;27.03;24.70;;;9.00;99.90;;;;;;4933843;29;20797;-78
2021/10/08 02:52:53;;;;;;;27.00;24.60;;;9.10;99.90;;;;;;4933621;29;20949;-78
2021/10/08 02:55:19;;;;;;;28.03;25.80;;;9.10;99.90;;;;;;4933605;29;20458;-77
2021/10/08 02:57:47;;;;;;;25.73;23.93;;;9.10;99.90;;;;;;4933613;29;20445;-79
2021/10/08 03:00:14;;;;;;;26.90;25.00;;;9.10;99.90;;;;;;4933519;29;20498;-79
2021/10/08 03:02:41;;;;;;;26.70;25.00;;;9.10;99.90;;;;;;4933621;29;20453;-80
2021/10/08 03:05:09;;;;;;;30.03;27.53;;;9.10;99.90;;;;;;4933575;29;20829;-80
2021/10/08 03:07:36;;;;;;;29.60;27.40;;;9.10;99.90;;;;;;4933726;29;20854;-82
2021/10/08 03:10:04;;;;;;;27.60;25.60;;;9.10;99.90;;;;;;4933867;29;20519;-84
2021/10/08 03:12:30;;;;;;;29.27;26.97;;;9.10;99.90;;;;;;4933451;29;20457;-84
2021/10/08 03:14:58;;;;;;;27.23;25.30;;;9.10;99.90;;;;;;4933545;29;20953;-85
2021/10/08 03:17:25;;;;;;;27.30;25.50;;;9.10;99.90;;;;;;4933589;29;20464;-84
2021/10/08 03:19:52;;;;;;;27.03;25.03;;;9.00;99.90;;;;;;4933577;29;20533;-82
2021/10/08 03:22:18;;;;;;;26.53;24.77;;;9.00;99.90;;;;;;4933546;29;20489;-81
2021/10/08 03:24:45;;;;;;;28.13;26.20;;;8.90;99.90;;;;;;4933276;29;20465;-82
2021/10/08 03:27:12;;;;;;;29.67;27.70;;;8.90;99.90;;;;;;4933657;29;20465;-82
2021/10/08 03:29:39;;;;;;;29.80;27.40;;;8.90;99.90;;;;;;4934437;28;20469;-82
2021/10/08 03:32:08;;;;;;;28.57;26.67;;;8.80;99.90;;;;;;4943407;29;20469;-84
2021/10/08 03:34:34;;;;;;;29.93;27.63;;;8.80;99.90;;;;;;4937247;29;20453;-82
2021/10/08 03:37:03;;;;;;;27.67;25.83;;;8.60;99.90;;;;;;4937369;29;20464;-83
2021/10/08 03:39:32;;;;;;;29.50;27.40;;;8.60;99.90;;;;;;4937533;29;20457;-81
2021/10/08 03:41:59;;;;;;;28.87;26.77;;;8.70;99.90;;;;;;4942924;29;20489;-82
2021/10/08 03:44:28;;;;;;;29.90;27.80;;;8.60;99.90;;;;;;4944419;29;20460;-81
2021/10/08 03:46:56;;;;;;;29.93;27.60;;;8.60;99.90;;;;;;4944037;29;20981;-83
2021/10/08 03:49:25;;;;;;;28.80;26.60;;;8.50;99.90;;;;;;4945135;29;20465;-88
2021/10/08 03:51:53;;;;;;;27.40;25.50;;;8.40;99.90;;;;;;4949573;29;20449;-88
2021/10/08 03:54:22;;;;;;;28.00;26.10;;;8.40;99.90;;;;;;4944749;29;20453;-88
2021/10/08 03:56:49;;;;;;;30.70;28.23;;;8.40;99.90;;;;;;4939060;29;20456;-88
2021/10/08 03:59:16;;;;;;;29.47;27.30;;;8.40;99.90;;;;;;4942076;29;20445;-89
2021/10/08 04:01:43;;;;;;;28.43;26.43;;;8.40;99.90;;;;;;4945901;29;20902;-88
2021/10/08 04:04:09;;;;;;;29.23;26.97;;;8.40;99.90;;;;;;4941189;29;20484;-80
2021/10/08 04:06:38;;;;;;;31.03;28.70;;;8.50;99.90;;;;;;4936996;29;20457;-82
2021/10/08 04:09:06;;;;;;;29.97;27.73;;;8.40;99.90;;;;;;4937176;29;20872;-82
2021/10/08 04:11:33;;;;;;;29.23;26.83;;;8.30;99.90;;;;;;4937179;29;20544;-82
2021/10/08 04:14:00;;;;;;;30.87;28.67;;;8.30;99.90;;;;;;4936492;29;20460;-82
2021/10/08 04:16:26;;;;;;;29.67;27.47;;;8.30;99.90;;;;;;4936416;29;20453;-81
2021/10/08 04:18:53;;;;;;;31.03;28.77;;;8.30;99.90;;;;;;4937160;29;20460;-82
2021/10/08 04:21:20;;;;;;;32.93;30.07;;;8.30;99.90;;;;;;4936697;29;20493;-83
2021/10/08 04:23:48;;;;;;;31.73;29.30;;;8.30;99.90;;;;;;4917829;29;20453;-82
2021/10/08 04:26:15;;;;;;;31.53;29.00;;;8.30;99.90;;;;;;4917764;29;20458;-81
2021/10/08 04:28:41;;;;;;;30.10;28.10;;;8.30;99.90;;;;;;4918982;29;20450;-82
2021/10/08 04:31:08;;;;;;;31.00;28.60;;;8.30;99.90;;;;;;4923054;29;20469;-83
2021/10/08 04:33:35;;;;;;;30.93;28.83;;;8.30;99.90;;;;;;4927986;29;20990;-85
2021/10/08 04:36:02;;;;;;;29.77;27.57;;;8.20;99.90;;;;;;4936198;29;20450;-84
2021/10/08 04:38:30;;;;;;;32.30;29.77;;;8.20;99.90;;;;;;4935846;29;20650;-79
2021/10/08 04:40:59;;;;;;;33.43;31.03;;;8.20;99.90;;;;;;4935806;29;20493;-80
2021/10/08 04:43:26;;;;;;;34.10;31.33;;;8.20;99.90;;;;;;4935727;29;20453;-86
2021/10/08 04:45:53;;;;;;;30.63;28.53;;;8.20;99.90;;;;;;4936868;29;20450;-86
2021/10/08 04:48:20;;;;;;;31.83;29.63;;;8.20;99.90;;;;;;4936817;29;20473;-85
2021/10/08 04:50:47;;;;;;;31.90;29.50;;;8.20;99.90;;;;;;4936305;29;20453;-86
2021/10/08 04:53:16;;;;;;;32.70;30.20;;;8.20;99.90;;;;;;4936376;29;20787;-81
2021/10/08 04:55:43;;;;;;;31.50;29.27;;;8.20;99.90;;;;;;4936068;29;20470;-82
2021/10/08 04:58:11;;;;;;;31.27;29.07;;;8.20;99.90;;;;;;4936197;29;20464;-81
2021/10/08 05:00:48;;;;;;;30.73;28.70;;;8.10;99.90;;;;;;4936591;29;20485;-86
2021/10/08 05:03:17;;;;;;;34.07;31.07;;;8.10;99.90;;;;;;4936903;29;20674;-81
2021/10/08 05:05:47;;;;;;;32.37;29.97;;;8.10;99.90;;;;;;4935712;29;20948;-83
2021/10/08 05:08:15;;;;;;;32.77;30.47;;;8.10;99.90;;;;;;4935212;29;20869;-83
2021/10/08 05:10:44;;;;;;;33.23;30.73;;;8.10;99.90;;;;;;4935498;29;20513;-87
2021/10/08 05:13:13;;;;;;;29.77;27.57;;;8.20;99.90;;;;;;4935559;29;20472;-82
2021/10/08 05:15:40;;;;;;;33.60;31.10;;;8.10;99.90;;;;;;4935147;29;20817;-82
2021/10/08 05:18:07;;;;;;;32.03;29.60;;;8.10;99.90;;;;;;4935226;29;20469;-83
2021/10/08 05:20:34;;;;;;;31.87;29.57;;;8.10;99.90;;;;;;4935122;29;20470;-83
2021/10/08 05:23:01;;;;;;;32.63;30.33;;;8.20;99.90;;;;;;4940102;29;20492;-84
2021/10/08 05:25:27;;;;;;;35.00;32.00;;;8.20;99.90;;;;;;4954880;29;20452;-79
2021/10/08 05:27:54;;;;;;;32.13;29.83;;;8.20;99.90;;;;;;4954523;29;20460;-79
2021/10/08 05:30:22;;;;;;;32.43;30.03;;;8.20;99.90;;;;;;4954186;29;20943;-79
2021/10/08 05:32:50;;;;;;;33.03;30.57;;;8.20;99.90;;;;;;4953948;29;20456;-78
2021/10/08 05:35:17;;;;;;;32.70;30.10;;;8.20;99.90;;;;;;4953393;29;20460;-77
2021/10/08 05:37:44;;;;;;;34.30;31.80;;;8.10;99.90;;;;;;4953773;29;20463;-76
2021/10/08 05:40:12;;;;;;;34.00;31.50;;;8.10;99.90;;;;;;4953476;29;20449;-76
2021/10/08 05:42:38;;;;;;;32.40;29.80;;;8.20;99.90;;;;;;4953452;29;20488;-77
2021/10/08 05:45:06;;;;;;;32.50;30.10;;;8.10;99.90;;;;;;4953784;29;20464;-77
2021/10/08 05:47:34;;;;;;;34.80;32.20;;;8.10;99.90;;;;;;4953508;29;20448;-77
2021/10/08 05:50:00;;;;;;;32.93;30.43;;;8.10;99.90;;;;;;4945502;29;20472;-78
2021/10/08 05:52:27;;;;;;;34.80;32.17;;;8.20;99.90;;;;;;4953334;29;20953;-81
2021/10/08 05:54:54;;;;;;;33.87;31.20;;;8.20;99.90;;;;;;4953549;28;20787;-80
2021/10/08 05:57:20;;;;;;;34.63;31.93;;;8.20;99.90;;;;;;4953208;29;20465;-82
2021/10/08 05:59:48;;;;;;;34.53;31.60;;;8.30;99.90;;;;;;4953430;29;20456;-81
2021/10/08 06:02:15;;;;;;;34.73;31.77;;;8.40;99.90;;;;;;4952967;29;20480;-83
2021/10/08 06:04:43;;;;;;;36.17;33.30;;;8.40;99.90;;;;;;4953688;29;20452;-82
2021/10/08 06:07:10;;;;;;;37.70;34.40;;;8.40;99.90;;;;;;4953351;29;20464;-83
2021/10/08 06:09:37;;;;;;;35.27;32.37;;;8.60;99.90;;;;;;4953471;29;20934;-84
2021/10/08 06:12:04;;;;;;;38.30;34.77;;;8.60;99.90;;;;;;4953648;29;20448;-87
2021/10/08 06:14:31;;;;;;;37.90;34.47;;;8.90;99.90;;;;;;4953214;29;20459;-82
2021/10/08 06:16:58;;;;;;;41.60;37.70;;;9.20;99.90;;;;;;4953262;29;20487;-87
2021/10/08 06:28:32;;;;;;;34.53;31.43;;;10.60;99.90;;;;;;4949625;29;20445;-81
2021/10/08 06:30:58;;;;;;;31.97;29.67;;;11.10;99.90;;;;;;4955826;28;20693;-78
2021/10/08 06:33:25;;;;;;;28.00;26.10;;;11.40;99.90;;;;;;5010680;28;20454;-77
2021/10/08 06:35:52;;;;;;;25.53;23.73;;;11.70;99.90;;;;;;5010748;28;20936;-78
2021/10/08 06:38:19;;;;;;;24.80;23.20;;;11.90;99.90;;;;;;5010685;28;20445;-77
2021/10/08 06:40:46;;;;;;;23.93;22.17;;;12.10;99.90;;;;;;5010646;28;20793;-75
2021/10/08 06:43:12;;;;;;;22.97;21.40;;;12.40;99.90;;;;;;5010852;28;20552;-75
2021/10/08 06:45:41;;;;;;;21.93;20.43;;;12.80;99.90;;;;;;5010918;28;20460;-76
2021/10/08 06:48:08;;;;;;;19.13;17.70;;;12.50;99.90;;;;;;5010903;28;20461;-76
2021/10/08 06:50:34;;;;;;;79.00;26.40;;;12.80;99.90;;;;;;5010767;28;20450;-75
2021/10/08 06:53:01;;;;;;;27.37;20.27;;;12.90;99.90;;;;;;5002469;28;20949;-75
2021/10/08 06:55:28;;;;;;;19.50;18.00;;;13.20;99.90;;;;;;5010779;28;20454;-75
2021/10/08 06:57:54;;;;;;;20.00;18.50;;;13.60;99.90;;;;;;5010745;28;20450;-76
2021/10/08 07:00:23;;;;;;;20.80;19.30;;;13.90;99.90;;;;;;5010709;28;20458;-77
2021/10/08 07:02:52;;;;;;;28.77;19.50;;;14.00;99.90;;;;;;5010605;28;21068;-75
2021/10/08 07:05:21;;;;;;;22.57;20.13;;;14.00;99.90;;;;;;5009412;28;20472;-75
2021/10/08 07:07:48;;;;;;;26.13;21.73;;;14.10;99.90;;;;;;5010669;28;20454;-77
2021/10/08 07:10:15;;;;;;;26.37;19.87;;;13.80;99.90;;;;;;5010684;28;20465;-76
2021/10/08 07:12:42;;;;;;;76.10;31.37;;;14.00;99.90;;;;;;5010680;28;20446;-76
2021/10/08 07:15:16;;;;;;;84.27;33.93;;;14.20;99.90;;;;;;5010495;28;20454;-76
2021/10/08 07:17:45;;;;;;;25.17;21.77;;;14.60;99.90;;;;;;5010628;28;20661;-77
2021/10/08 07:20:14;;;;;;;20.47;18.40;;;15.40;99.90;;;;;;4998069;28;20482;-76
2021/10/08 07:22:41;;;;;;;21.77;20.10;;;15.70;99.90;;;;;;5005380;28;20597;-76
2021/10/08 07:25:09;;;;;;;21.07;19.77;;;15.90;99.90;;;;;;4990847;28;20482;-77
2021/10/08 07:27:37;;;;;;;20.23;18.90;;;16.10;99.90;;;;;;5001292;28;20453;-77
2021/10/08 07:30:06;;;;;;;20.67;19.20;;;16.00;99.90;;;;;;5010483;28;20867;-77
2021/10/08 07:32:33;;;;;;;19.87;18.40;;;16.20;99.90;;;;;;5010448;28;20951;-77
2021/10/08 07:35:00;;;;;;;18.83;17.73;;;16.20;99.90;;;;;;5008971;28;20912;-76
2021/10/08 07:37:28;;;;;;;19.83;18.63;;;16.60;99.90;;;;;;4990806;28;20451;-76
2021/10/08 07:39:56;;;;;;;21.67;20.30;;;16.80;99.90;;;;;;4990656;28;20471;-76
2021/10/08 07:42:23;;;;;;;21.73;20.13;;;17.10;99.90;;;;;;4990632;28;20577;-76
2021/10/08 07:44:50;;;;;;;22.73;21.30;;;16.90;99.90;;;;;;4990638;28;20505;-77
2021/10/08 07:47:17;;;;;;;21.13;19.83;;;17.40;99.90;;;;;;4996990;28;20478;-76
2021/10/08 07:49:44;;;;;;;20.03;18.83;;;17.80;99.90;;;;;;5010413;28;20530;-77
2021/10/08 07:52:11;;;;;;;20.90;19.60;;;17.80;99.90;;;;;;5010106;28;20453;-77
2021/10/08 07:54:39;;;;;;;21.80;20.50;;;18.50;99.90;;;;;;5010355;28;20450;-77
2021/10/08 07:57:06;;;;;;;21.60;20.00;;;18.80;99.10;;;;;;4990903;28;20446;-76
2021/10/08 07:59:33;;;;;;;21.93;20.23;;;18.90;99.50;;;;;;4990746;28;20696;-76
2021/10/08 08:02:00;;;;;;;21.37;19.60;;;19.80;97.90;;;;;;4997294;28;20496;-77
2021/10/08 08:04:26;;;;;;;21.60;20.10;;;19.90;96.50;;;;;;5010040;28;20923;-76
2021/10/08 08:06:59;;;;;;;22.93;21.03;;;20.50;96.00;;;;;;5010167;28;21004;-76
2021/10/08 08:09:25;;;;;;;23.40;21.40;;;20.50;95.10;;;;;;5009054;28;20889;-76
2021/10/08 08:11:53;;;;;;;23.47;21.53;;;20.50;95.80;;;;;;5009997;28;20827;-76
2021/10/08 08:14:20;;;;;;;23.33;21.53;;;21.40;94.60;;;;;;5009823;28;20453;-80
2021/10/08 08:16:47;;;;;;;22.67;21.23;;;21.00;94.30;;;;;;5010018;28;20461;-79
2021/10/08 08:19:14;;;;;;;21.70;20.20;;;20.50;94.90;;;;;;5007328;28;20643;-77
2021/10/08 08:21:41;;;;;;;21.40;20.10;;;20.90;94.80;;;;;;5013912;28;20569;-78
2021/10/08 08:24:09;;;;;;;22.87;21.47;;;21.30;93.90;;;;;;5015406;28;20517;-79
2021/10/08 08:26:36;;;;;;;23.03;21.63;;;21.90;92.80;;;;;;5016822;28;20477;-78
2021/10/08 08:29:04;;;;;;;22.93;21.43;;;21.40;93.40;;;;;;5015821;28;20852;-78
2021/10/08 08:31:31;;;;;;;21.43;20.13;;;21.00;93.50;;;;;;5015473;28;20453;-78
2021/10/08 08:33:57;;;;;;;23.20;21.63;;;21.60;93.40;;;;;;5015188;28;20457;-79
2021/10/08 08:36:24;;;;;;;21.83;20.43;;;22.30;92.40;;;;;;5013792;28;20453;-78
2021/10/08 08:38:51;;;;;;;22.33;21.03;;;22.40;91.70;;;;;;5013819;28;20454;-78
2021/10/08 08:41:18;;;;;;;22.53;21.00;;;21.90;91.70;;;;;;5013648;28;20458;-78
2021/10/08 08:43:45;;;;;;;23.17;21.37;;;20.70;93.40;;;;;;5013415;28;20834;-78
2021/10/08 08:46:13;;;;;;;24.73;22.47;;;19.50;95.60;;;;;;5013456;28;20999;-78
2021/10/08 08:48:41;;;;;;;22.40;20.80;;;19.10;97.40;;;;;;5013340;28;20454;-78
2021/10/08 08:51:08;;;;;;;23.83;22.20;;;18.60;98.40;;;;;;5013378;28;20456;-79
2021/10/08 08:53:34;;;;;;;22.97;21.20;;;18.40;99.90;;;;;;5013398;28;20885;-78
2021/10/08 08:56:02;;;;;;;20.43;18.93;;;18.30;99.90;;;;;;5005103;28;20821;-78
2021/10/08 08:58:29;;;;;;;21.30;20.00;;;18.10;99.90;;;;;;5013189;28;20544;-77
2021/10/08 09:00:57;;;;;;;22.10;20.63;;;17.30;99.90;;;;;;5013206;28;20887;-80
2021/10/08 09:03:25;;;;;;;21.67;20.30;;;17.20;99.90;;;;;;5013029;28;20508;-79
2021/10/08 09:05:53;;;;;;;21.50;20.00;;;17.20;99.90;;;;;;5013157;28;20449;-77
2021/10/08 09:08:19;;;;;;;21.40;20.20;;;17.60;99.90;;;;;;5012713;28;20458;-77
2021/10/08 09:10:48;;;;;;;22.43;21.00;;;17.40;99.90;;;;;;5013125;28;20454;-78
2021/10/08 09:13:16;;;;;;;21.73;20.43;;;17.20;99.90;;;;;;5012847;28;20526;-78
2021/10/08 09:15:51;;;;;;;21.13;19.63;;;17.10;99.90;;;;;;5013894;28;20456;-79
2021/10/08 09:18:19;;;;;;;20.27;19.10;;;17.10;99.90;;;;;;5010257;28;20513;-79
2021/10/08 09:21:08;;;;;;;21.17;19.90;;;17.50;99.90;;;;;;5010208;28;20473;-80
2021/10/08 09:23:37;;;;;;;21.00;19.70;;;17.50;99.90;;;;;;5012561;28;20556;-80
2021/10/08 09:26:05;;;;;;;21.03;19.80;;;17.20;99.90;;;;;;5012289;28;20466;-80
2021/10/08 09:28:32;;;;;;;20.70;19.17;;;17.10;99.90;;;;;;5012620;28;20508;-80
2021/10/08 09:30:59;;;;;;;20.10;18.90;;;17.00;99.90;;;;;;5012131;28;20461;-80
2021/10/08 09:33:30;;;;;;;20.10;18.60;;;16.90;99.90;;;;;;5012529;28;20953;-80
2021/10/08 09:35:59;;;;;;;21.43;20.20;;;17.00;99.90;;;;;;5012395;28;20482;-79
2021/10/08 09:38:32;;;;;;;21.63;19.70;;;17.00;99.90;;;;;;5012253;28;20848;-79
2021/10/08 09:41:02;;;;;;;19.77;18.57;;;17.10;99.90;;;;;;5012096;28;20507;-79
2021/10/08 09:43:31;;;;;;;21.53;20.03;;;17.30;99.90;;;;;;5011987;28;20481;-79
2021/10/08 09:45:58;;;;;;;19.80;18.60;;;17.50;99.90;;;;;;5012141;28;20488;-79
2021/10/08 09:48:35;;;;;;;20.87;19.47;;;17.40;99.90;;;;;;5012413;28;20450;-78
2021/10/08 09:51:05;;;;;;;20.60;19.10;;;17.20;99.90;;;;;;5012595;28;20962;-78
2021/10/08 09:53:35;;;;;;;20.20;18.73;;;17.30;99.90;;;;;;5012621;28;20537;-79
2021/10/08 09:56:03;;;;;;;21.10;19.73;;;17.40;99.90;;;;;;5012309;28;20859;-80
2021/10/08 09:58:51;;;;;;;21.13;19.80;;;17.40;99.90;;;;;;5012525;28;20458;-79
2021/10/08 10:01:24;;;;;;;20.37;18.83;;;17.40;99.90;;;;;;5012592;28;20536;-79
2021/10/08 10:03:52;;;;;;;21.93;20.20;;;17.50;99.90;;;;;;5012409;28;20496;-79
2021/10/08 10:06:21;;;;;;;23.43;21.70;;;17.60;99.90;;;;;;5012191;28;20457;-79
2021/10/08 10:08:49;;;;;;;21.40;19.57;;;17.90;99.90;;;;;;5011729;28;20453;-78
2021/10/08 10:11:16;;;;;;;64.63;25.77;;;17.60;99.90;;;;;;5011818;28;20516;-78
2021/10/08 10:13:45;;;;;;;21.33;20.03;;;17.60;99.90;;;;;;5012071;28;20473;-79
2021/10/08 10:16:15;;;;;;;18.07;16.93;;;17.20;99.90;;;;;;5012018;28;20458;-79
2021/10/08 10:18:42;;;;;;;22.33;20.60;;;17.60;99.90;;;;;;5011852;28;20455;-79
2021/10/08 10:21:10;;;;;;;20.67;19.13;;;17.70;99.90;;;;;;5011566;28;20486;-80
2021/10/08 10:23:38;;;;;;;20.70;19.23;;;17.70;99.90;;;;;;5011967;28;20497;-80
2021/10/08 10:26:06;;;;;;;18.97;17.77;;;17.50;99.90;;;;;;5011641;28;20947;-80
2021/10/08 10:28:34;;;;;;;20.77;19.20;;;17.60;99.90;;;;;;4992408;28;20462;-79
2021/10/08 10:31:01;;;;;;;19.50;18.17;;;18.10;99.90;;;;;;4992025;28;20459;-80
2021/10/08 10:33:30;;;;;;;20.60;19.20;;;18.00;99.90;;;;;;4992185;28;20443;-79
2021/10/08 10:35:59;;;;;;;39.63;23.63;;;18.60;99.90;;;;;;4991980;28;20953;-80
2021/10/08 10:38:29;;;;;;;36.97;24.50;;;18.70;99.90;;;;;;4991887;28;20459;-80
2021/10/08 10:41:25;;;;;;;28.57;21.80;;;19.20;99.90;;;;;;4990960;28;20457;-79
2021/10/08 10:44:10;;;;;;;21.03;19.37;;;19.30;99.90;;;;;;4991528;28;20486;-80
2021/10/08 10:46:41;;;;;;;19.37;18.13;;;19.40;99.90;;;;;;4992144;28;20446;-80
2021/10/08 10:49:30;;;;;;;19.97;18.60;;;19.10;99.90;;;;;;4992444;28;20526;-81
2021/10/08 10:52:11;;;;;;;19.53;18.37;;;19.20;99.90;;;;;;4993209;28;20778;-82
2021/10/08 10:55:01;;;;;;;18.70;17.37;;;19.40;99.90;;;;;;4992721;28;20450;-80
2021/10/08 10:57:52;;;;;;;19.57;18.10;;;19.40;99.90;;;;;;4991715;28;20474;-80
2021/10/08 11:00:29;;;;;;;18.40;17.40;;;19.50;99.90;;;;;;4991994;28;20449;-80
2021/10/08 11:03:01;;;;;;;18.97;17.73;;;19.80;99.90;;;;;;4992938;28;20494;-80
2021/10/08 11:05:29;;;;;;;19.77;18.40;;;19.90;99.90;;;;;;4991835;28;20462;-79
2021/10/08 11:08:08;;;;;;;18.23;16.63;;;19.40;99.90;;;;;;4991003;28;20535;-80
2021/10/08 11:10:35;;;;;;;19.37;18.27;;;19.40;99.90;;;;;;4991346;28;20446;-79
2021/10/08 11:13:27;;;;;;;18.60;17.50;;;18.70;99.90;;;;;;4991564;28;20451;-79
2021/10/08 11:15:56;;;;;;;20.20;18.43;;;18.40;99.90;;;;;;4991312;28;20933;-79
2021/10/08 11:18:46;;;;;;;20.43;19.13;;;18.40;99.90;;;;;;4991044;28;20615;-79
2021/10/08 11:21:30;;;;;;;19.67;18.50;;;18.40;99.90;;;;;;4991095;28;20482;-80
2021/10/08 11:24:01;;;;;;;20.53;19.30;;;18.60;99.90;;;;;;4990082;28;20495;-80
2021/10/08 11:26:28;;;;;;;18.93;17.53;;;18.70;99.90;;;;;;4994659;28;20450;-80
2021/10/08 11:28:57;;;;;;;19.57;18.37;;;18.90;99.90;;;;;;5010876;28;20469;-80
2021/10/08 11:31:24;;;;;;;20.70;19.03;;;18.80;99.90;;;;;;5010791;28;20893;-79
2021/10/08 11:33:54;;;;;;;19.77;18.53;;;18.40;99.90;;;;;;5010915;28;20450;-79
2021/10/08 11:36:25;;;;;;;18.57;17.60;;;18.50;99.90;;;;;;5010677;28;20508;-80
2021/10/08 11:39:07;;;;;;;20.40;18.80;;;18.90;99.90;;;;;;5011011;28;20875;-80
2021/10/08 11:41:34;;;;;;;19.10;17.70;;;19.10;99.90;;;;;;5010942;28;20817;-79
2021/10/08 11:44:21;;;;;;;18.73;17.53;;;19.00;99.90;;;;;;5010881;28;20496;-80
2021/10/08 11:50:04;;;;;;;18.43;17.17;;;19.70;99.90;;;;;;5005856;28;20789;-81
2021/10/08 11:52:33;;;;;;;19.43;18.23;;;19.90;99.90;;;;;;5010658;28;20943;-80
2021/10/08 11:55:12;;;;;;;19.47;18.07;;;19.60;99.90;;;;;;5014173;28;20456;-81
2021/10/08 11:57:53;;;;;;;20.83;19.10;;;19.10;99.90;;;;;;5014391;28;20931;-81
2021/10/08 12:00:24;;;;;;;19.53;18.33;;;18.70;99.90;;;;;;5014472;28;20457;-80
2021/10/08 12:03:02;;;;;;;20.33;19.00;;;18.40;99.90;;;;;;5014504;28;20492;-80
2021/10/08 12:05:47;;;;;;;18.80;17.60;;;18.40;99.90;;;;;;5014437;28;20904;-79
2021/10/08 12:08:16;;;;;;;19.17;17.80;;;18.40;99.90;;;;;;5014310;28;20447;-80
2021/10/08 12:10:58;;;;;;;18.93;17.63;;;18.70;99.90;;;;;;5014317;28;20845;-79
2021/10/08 12:13:40;;;;;;;19.53;18.27;;;18.80;99.90;;;;;;5013902;28;20944;-80
2021/10/08 12:16:09;;;;;;;18.57;17.47;;;18.60;99.90;;;;;;5014014;28;20461;-80
2021/10/08 12:18:36;;;;;;;18.67;17.27;;;18.40;99.90;;;;;;5014426;28;20492;-80
2021/10/08 12:21:11;;;;;;;19.33;18.13;;;18.40;99.90;;;;;;5013780;28;20506;-81
2021/10/08 12:23:39;;;;;;;19.60;18.30;;;18.20;99.90;;;;;;5013466;28;20503;-81
2021/10/08 12:26:06;;;;;;;19.10;17.80;;;17.90;99.90;;;;;;5013744;28;20454;-80
2021/10/08 12:28:33;;;;;;;18.03;16.83;;;18.00;99.90;;;;;;4994096;28;20443;-80
2021/10/08 12:31:01;;;;;;;19.43;17.97;;;17.90;99.90;;;;;;4993708;28;20447;-81
2021/10/08 12:33:31;;;;;;;18.00;16.90;;;18.10;99.90;;;;;;4994221;28;20454;-81
2021/10/08 12:36:21;;;;;;;18.47;17.17;;;18.30;99.90;;;;;;4993843;28;20447;-81
2021/10/08 12:38:59;;;;;;;19.13;17.73;;;18.50;99.90;;;;;;4994055;28;20450;-82
2021/10/08 12:41:31;;;;;;;18.90;17.77;;;18.60;99.90;;;;;;4993823;28;20867;-76
2021/10/08 12:44:16;;;;;;;20.30;19.00;;;18.70;99.90;;;;;;4994001;28;20846;-76
2021/10/08 12:46:46;;;;;;;19.80;18.60;;;19.20;99.90;;;;;;5006270;28;20568;-77
2021/10/08 12:49:14;;;;;;;20.17;18.80;;;19.30;99.90;;;;;;5013470;28;20446;-76
2021/10/08 12:51:52;;;;;;;20.47;19.07;;;18.90;99.90;;;;;;5013499;28;20446;-77
2021/10/08 12:54:24;;;;;;;20.20;19.00;;;18.50;99.90;;;;;;5013728;28;20434;-76
2021/10/08 12:57:14;;;;;;;21.00;19.70;;;18.50;99.90;;;;;;5014162;28;20457;-75
2021/10/08 12:59:48;;;;;;;21.17;19.70;;;18.30;99.90;;;;;;5013954;28;20457;-76
2021/10/08 13:02:15;;;;;;;20.30;19.00;;;18.20;99.90;;;;;;5013227;28;20457;-76
2021/10/08 13:04:44;;;;;;;20.17;18.97;;;18.40;99.90;;;;;;5012492;28;20493;-76
2021/10/08 13:07:18;;;;;;;19.17;18.00;;;18.50;99.90;;;;;;5013505;28;20941;-76
2021/10/08 13:10:08;;;;;;;18.90;17.70;;;19.00;99.90;;;;;;5013482;28;20453;-76
2021/10/08 13:12:42;;;;;;;19.67;18.37;;;19.10;99.90;;;;;;5013655;28;20458;-76
2021/10/08 13:15:11;;;;;;;19.23;18.00;;;19.10;99.90;;;;;;5013555;28;20449;-77
2021/10/08 13:17:37;;;;;;;18.63;17.47;;;19.00;99.90;;;;;;5013484;28;20458;-76
2021/10/08 13:20:08;;;;;;;19.10;17.90;;;19.40;99.90;;;;;;5011382;28;20470;-77
2021/10/08 13:22:34;;;;;;;19.23;18.00;;;19.10;99.90;;;;;;5002132;28;20451;-77
2021/10/08 13:25:02;;;;;;;19.97;18.73;;;19.10;99.90;;;;;;4994296;28;20542;-77
2021/10/08 13:27:32;;;;;;;19.80;18.20;;;19.20;99.90;;;;;;4996371;28;20515;-77
2021/10/08 13:29:59;;;;;;;18.70;17.60;;;18.90;99.90;;;;;;4994083;28;20459;-77
2021/10/08 13:32:25;;;;;;;19.97;18.80;;;18.60;99.90;;;;;;4993676;28;20461;-77
2021/10/08 13:34:52;;;;;;;19.20;18.10;;;18.30;99.90;;;;;;4993844;28;20845;-76
2021/10/08 13:37:20;;;;;;;20.10;18.80;;;18.50;99.90;;;;;;5013320;28;20461;-76
2021/10/08 13:39:47;;;;;;;20.43;19.03;;;18.30;99.90;;;;;;5013009;28;20464;-76
2021/10/08 13:42:14;;;;;;;18.70;17.60;;;18.10;99.90;;;;;;5012665;28;20454;-76
2021/10/08 13:44:41;;;;;;;18.83;17.73;;;17.90;99.90;;;;;;5012986;28;20495;-74
2021/10/08 13:47:08;;;;;;;18.70;17.60;;;18.00;99.90;;;;;;5012588;28;20485;-75
2021/10/08 13:49:35;;;;;;;20.20;18.90;;;18.10;99.90;;;;;;5012813;28;20450;-75
2021/10/08 13:52:02;;;;;;;19.00;17.90;;;18.30;99.90;;;;;;5012388;28;20450;-75
2021/10/08 13:54:30;;;;;;;19.37;18.27;;;18.30;99.90;;;;;;5012638;28;20450;-74
2021/10/08 13:56:57;;;;;;;18.10;17.10;;;18.30;99.90;;;;;;5012648;28;20461;-75
2021/10/08 13:59:24;;;;;;;18.53;17.33;;;18.40;99.90;;;;;;5012649;28;20453;-73
2021/10/08 14:01:56;;;;;;;19.60;18.10;;;18.30;99.90;;;;;;5012497;28;20472;-75
2021/10/08 14:04:27;;;;;;;17.60;16.60;;;18.30;99.90;;;;;;5012550;28;20485;-75
2021/10/08 14:12:22;;;;;;;19.30;18.10;;;18.10;99.90;;;;;;5012820;28;20425;-75
2021/10/08 14:14:49;;;;;;;18.63;17.57;;;18.20;99.90;;;;;;5012346;28;20449;-75
2021/10/08 14:17:15;;;;;;;19.43;18.10;;;18.10;99.90;;;;;;5011229;28;20457;-75
2021/10/08 14:19:42;;;;;;;18.80;17.50;;;18.10;99.90;;;;;;5012080;28;21006;-75
2021/10/08 14:22:09;;;;;;;17.57;16.47;;;18.00;99.90;;;;;;5004380;28;20493;-75
2021/10/08 14:24:35;;;;;;;17.53;16.40;;;17.90;99.90;;;;;;5000818;28;20493;-76
2021/10/08 14:27:03;;;;;;;19.13;18.10;;;17.90;99.90;;;;;;4992478;28;20458;-75
2021/10/08 14:29:30;;;;;;;18.33;17.33;;;17.90;99.90;;;;;;4992541;28;20455;-75
2021/10/08 14:31:57;;;;;;;18.60;17.60;;;17.80;99.90;;;;;;4992110;28;20963;-75
2021/10/08 14:34:23;;;;;;;17.67;16.77;;;17.70;99.90;;;;;;4992082;28;20971;-75
2021/10/08 14:36:50;;;;;;;19.80;18.50;;;17.60;99.90;;;;;;4992254;28;20457;-75
2021/10/08 14:39:17;;;;;;;18.93;17.83;;;17.60;99.90;;;;;;4992077;28;20489;-74
2021/10/08 14:41:44;;;;;;;19.90;18.50;;;17.50;99.90;;;;;;4990574;28;20462;-75
2021/10/08 14:44:12;;;;;;;19.30;18.10;;;17.50;99.90;;;;;;4991774;28;20491;-75
2021/10/08 14:46:38;;;;;;;20.40;19.30;;;17.50;99.90;;;;;;4990334;28;20459;-75
2021/10/08 14:49:05;;;;;;;18.77;17.67;;;17.60;99.90;;;;;;4990225;28;20446;-75
2021/10/08 14:51:33;;;;;;;19.30;17.73;;;17.60;99.90;;;;;;5002708;28;20881;-75
2021/10/08 14:54:12;;;;;;;19.63;18.40;;;17.50;99.90;;;;;;5011776;28;20478;-75
2021/10/08 14:56:55;;;;;;;17.43;16.47;;;17.40;99.90;;;;;;5012011;28;20438;-75
2021/10/08 14:59:23;;;;;;;19.10;17.77;;;17.40;99.90;;;;;;5011962;28;20462;-74
2021/10/08 15:01:49;;;;;;;19.80;18.40;;;17.20;99.90;;;;;;5010194;28;20453;-75
2021/10/08 15:04:16;;;;;;;19.53;18.20;;;17.20;99.90;;;;;;5011229;28;20489;-75
2021/10/08 15:06:43;;;;;;;21.23;19.83;;;17.30;99.90;;;;;;5011691;28;20461;-75
2021/10/08 15:09:10;;;;;;;21.50;19.67;;;17.40;99.90;;;;;;5009408;28;20458;-74
2021/10/08 15:11:38;;;;;;;21.10;19.70;;;17.40;99.90;;;;;;5011930;28;20441;-74
2021/10/08 15:14:05;;;;;;;23.77;22.10;;;17.20;99.90;;;;;;5011087;28;20480;-75
2021/10/08 15:16:33;;;;;;;22.67;21.17;;;17.30;99.90;;;;;;5011653;28;20454;-74
2021/10/08 15:19:00;;;;;;;21.73;20.37;;;17.20;99.90;;;;;;5011466;28;20465;-75
2021/10/08 15:21:26;;;;;;;21.70;20.20;;;17.30;99.90;;;;;;5011086;28;20481;-75